This is the latest recevied weather packets stored in our database for station/object OM6ACB-6. If no packets are shown the sender has not sent any weather packets the latest 10 day(s).
| Time | Temp. | Humidity | Pressure | Rain* | Wind** | Luminosity | Snow |
|---|---|---|---|---|---|---|---|
| 1777836221 | 8.33° C | 28% | 1020.1 hPa | 0 mm | - | - | - |
| 1777835621 | 8.89° C | 28% | 1020 hPa | 0 mm | - | - | - |
| 1777835021 | 8.33° C | 28% | 1019.9 hPa | 0 mm | - | - | - |
| 1777834420 | 8.89° C | 28% | 1019.8 hPa | 0 mm | - | - | - |
| 1777833820 | 9.44° C | 28% | 1019.8 hPa | 0 mm | - | - | - |
| 1777833220 | 11.11° C | 27% | 1020 hPa | 0 mm | - | - | - |
| 1777832619 | 12.22° C | 26% | 1020.2 hPa | 0 mm | - | - | - |
| 1777832019 | 14.44° C | 25% | 1020.3 hPa | 0 mm | - | - | - |
| 1777831419 | 14.44° C | 25% | 1020.2 hPa | 0 mm | - | - | - |
| 1777830818 | 15° C | 25% | 1020.3 hPa | 0 mm | - | - | - |
| 1777830218 | 16.67° C | 24% | 1020.6 hPa | 0 mm | - | - | - |
| 1777829618 | 17.78° C | 24% | 1020.6 hPa | 0 mm | - | - | - |
| 1777829018 | 17.78° C | 24% | 1020.7 hPa | 0 mm | - | - | - |
| 1777828417 | 18.33° C | 23% | 1020.6 hPa | 0 mm | - | - | - |
| 1777827817 | 18.89° C | 23% | 1020.8 hPa | 0 mm | - | - | - |
| 1777827217 | 20° C | 23% | 1021.1 hPa | 0 mm | - | - | - |
| 1777826616 | 22.22° C | 21% | 1021.3 hPa | 0 mm | - | - | - |
| 1777826016 | 22.22° C | 21% | 1021.2 hPa | 0 mm | - | - | - |
| 1777825416 | 22.78° C | 21% | 1021.4 hPa | 0 mm | - | - | - |
| 1777824816 | 23.33° C | 21% | 1021.3 hPa | 0 mm | - | - | - |
| 1777824215 | 23.33° C | 21% | 1021.5 hPa | 0 mm | - | - | - |
| 1777823615 | 23.33° C | 21% | 1021.6 hPa | 0 mm | - | - | - |
| 1777823015 | 23.33° C | 21% | 1021.6 hPa | 0 mm | - | - | - |
| 1777822414 | 24.44° C | 20% | 1021.7 hPa | 0 mm | - | - | - |
| 1777821814 | 23.33° C | 21% | 1021.6 hPa | 0 mm | - | - | - |
* Rain latest hour (hover to see other rain measurements)
** Current wind speed in m/s (hover to see current wind gust speed)